createdAt,value
2023-03-22T00:00:55.683Z,97.16
2023-03-22T00:01:55.655Z,96.95
2023-03-22T00:02:55.684Z,96.55
2023-03-22T00:03:55.717Z,96.95
2023-03-22T00:04:55.609Z,96.75
2023-03-22T00:05:55.588Z,96.75
2023-03-22T00:06:55.575Z,96.85
2023-03-22T00:07:55.558Z,96.85
2023-03-22T00:08:55.548Z,96.23
2023-03-22T00:09:55.522Z,96.14
2023-03-22T00:10:55.507Z,96.09
2023-03-22T00:11:55.510Z,96.34
2023-03-22T00:12:55.479Z,96.85
2023-03-22T00:13:55.495Z,96.30
2023-03-22T00:14:55.438Z,96.40
2023-03-22T00:15:55.437Z,96.60
2023-03-22T00:16:55.406Z,96.75
2023-03-22T00:17:55.389Z,96.91
2023-03-22T00:18:55.431Z,96.50
2023-03-22T00:19:55.354Z,96.30
2023-03-22T00:20:55.343Z,96.50
2023-03-22T00:21:55.320Z,96.60
2023-03-22T00:22:55.301Z,96.60
2023-03-22T00:23:55.284Z,96.60
2023-03-22T00:24:55.286Z,96.60
2023-03-22T00:25:55.251Z,96.40
2023-03-22T00:26:55.247Z,96.60
2023-03-22T00:27:55.220Z,95.89
2023-03-22T00:28:55.234Z,95.98
2023-03-22T00:29:55.192Z,95.98
2023-03-22T00:30:55.175Z,96.40
2023-03-22T00:31:55.168Z,96.19
2023-03-22T00:32:55.140Z,96.19
2023-03-22T00:33:55.151Z,95.98
2023-03-22T00:34:55.110Z,95.94
2023-03-22T00:35:55.133Z,95.94
2023-03-22T00:36:55.100Z,95.43
2023-03-22T00:37:55.053Z,95.74
2023-03-22T00:38:55.046Z,95.84
2023-03-22T00:39:55.029Z,95.84
2023-03-22T00:40:55.043Z,95.74
2023-03-22T00:41:54.987Z,95.53
2023-03-22T00:42:54.971Z,95.23
2023-03-22T00:43:54.958Z,95.43
2023-03-22T00:44:54.946Z,94.71
2023-03-22T00:45:54.970Z,95.02
2023-03-22T00:46:54.961Z,95.23
2023-03-22T00:47:54.949Z,95.43
2023-03-22T00:48:54.877Z,95.23
2023-03-22T00:49:54.854Z,94.87
2023-03-22T00:50:54.867Z,94.61
2023-03-22T00:51:54.847Z,94.61
2023-03-22T00:52:54.814Z,94.30
2023-03-22T00:53:54.801Z,94.40
2023-03-22T00:54:54.772Z,94.30
2023-03-22T00:55:54.753Z,94.30
2023-03-22T00:56:54.743Z,94.26
2023-03-22T00:57:54.748Z,94.30
2023-03-22T00:58:54.705Z,94.05
2023-03-22T00:59:54.690Z,94.26
2023-03-22T01:00:54.725Z,93.74
2023-03-22T01:01:54.703Z,93.95
2023-03-22T01:02:54.638Z,94.05
2023-03-22T01:03:54.747Z,93.95
2023-03-22T01:04:54.605Z,94.05
2023-03-22T01:05:54.603Z,94.26
2023-03-22T01:06:54.571Z,93.85
2023-03-22T01:07:54.564Z,93.74
2023-03-22T01:08:54.565Z,93.54
2023-03-22T01:09:54.524Z,93.44
2023-03-22T01:10:54.508Z,93.23
2023-03-22T01:11:54.486Z,93.54
2023-03-22T01:12:54.470Z,93.23
2023-03-22T01:13:54.516Z,93.08
2023-03-22T01:14:54.435Z,93.44
2023-03-22T01:15:54.423Z,93.33
2023-03-22T01:16:54.510Z,93.08
2023-03-22T01:17:54.391Z,92.78
2023-03-22T01:18:54.368Z,92.36
2023-03-22T01:19:54.403Z,92.57
2023-03-22T01:20:54.346Z,92.78
2023-03-22T01:21:54.334Z,92.78
2023-03-22T01:22:54.300Z,92.47
2023-03-22T01:23:54.281Z,92.68
2023-03-22T01:24:54.272Z,92.57
2023-03-22T01:25:54.253Z,92.93
2023-03-22T01:26:54.240Z,92.72
2023-03-22T01:27:54.219Z,92.31
2023-03-22T01:28:54.229Z,92.78
2023-03-22T01:29:54.210Z,92.36
2023-03-22T01:30:54.224Z,92.57
2023-03-22T01:31:54.151Z,92.47
2023-03-22T01:32:54.135Z,92.27
2023-03-22T01:33:54.114Z,91.86
2023-03-22T01:34:54.146Z,91.96
2023-03-22T01:35:54.144Z,91.96
2023-03-22T01:36:54.065Z,92.27
2023-03-22T01:37:54.054Z,92.61
2023-03-22T01:38:54.034Z,92.68
2023-03-22T01:39:54.017Z,93.02
2023-03-22T01:40:54.026Z,92.27
2023-03-22T01:41:53.988Z,92.41
2023-03-22T01:42:53.966Z,93.23
2023-03-22T01:43:53.955Z,93.13
2023-03-22T01:44:53.932Z,93.74
2023-03-22T01:45:53.998Z,93.23
2023-03-22T01:46:53.910Z,93.23
2023-03-22T01:47:53.926Z,93.44
2023-03-22T01:48:53.914Z,93.64
2023-03-22T01:49:53.849Z,93.64
2023-03-22T01:50:53.880Z,93.74
2023-03-22T01:51:53.825Z,93.54
2023-03-22T01:52:53.808Z,93.74
2023-03-22T01:53:53.785Z,93.74
2023-03-22T01:54:53.771Z,93.64
2023-03-22T01:55:53.774Z,93.85
2023-03-22T01:56:53.732Z,93.85
2023-03-22T01:57:53.717Z,93.74
2023-03-22T01:58:53.699Z,93.74
2023-03-22T01:59:53.715Z,93.95
2023-03-22T02:00:53.684Z,93.74
2023-03-22T02:01:53.677Z,93.64
2023-03-22T02:02:53.742Z,93.74
2023-03-22T02:03:53.626Z,93.85
2023-03-22T02:04:53.608Z,93.85
2023-03-22T02:05:53.586Z,93.74
2023-03-22T02:06:53.622Z,93.74
2023-03-22T02:07:53.567Z,93.70
2023-03-22T02:08:53.532Z,93.44
2023-03-22T02:09:53.543Z,93.60
2023-03-22T02:10:53.500Z,93.74
2023-03-22T02:11:53.480Z,93.64
2023-03-22T02:12:53.483Z,93.64
2023-03-22T02:13:53.446Z,93.60
2023-03-22T02:14:53.429Z,93.74
2023-03-22T02:15:53.446Z,93.60
2023-03-22T02:16:53.403Z,93.85
2023-03-22T02:17:53.408Z,93.85
2023-03-22T02:18:53.398Z,94.05
2023-03-22T02:19:53.347Z,94.05
2023-03-22T02:20:53.334Z,94.05
2023-03-22T02:21:53.313Z,93.54
2023-03-22T02:22:53.295Z,93.54
2023-03-22T02:23:53.323Z,94.36
2023-03-22T02:24:53.271Z,93.95
2023-03-22T02:25:53.275Z,93.85
2023-03-22T02:26:53.229Z,94.15
2023-03-22T02:27:53.214Z,93.95
2023-03-22T02:28:53.226Z,93.95
2023-03-22T02:29:53.188Z,94.26
2023-03-22T02:30:53.206Z,94.15
2023-03-22T02:31:53.147Z,93.95
2023-03-22T02:32:53.132Z,94.05
2023-03-22T02:33:53.150Z,94.26
2023-03-22T02:34:53.132Z,94.05
2023-03-22T02:35:53.151Z,93.85
2023-03-22T02:36:53.088Z,94.05
2023-03-22T02:37:53.048Z,94.15
2023-03-22T02:38:53.030Z,94.26
2023-03-22T02:39:53.024Z,94.36
2023-03-22T02:40:53.059Z,94.26
2023-03-22T02:41:52.987Z,94.36
2023-03-22T02:42:52.963Z,94.36
2023-03-22T02:43:52.970Z,94.36
2023-03-22T02:44:52.941Z,94.36
2023-03-22T02:45:52.912Z,94.15
2023-03-22T02:46:53.062Z,94.26
2023-03-22T02:47:52.960Z,94.15
2023-03-22T02:48:52.879Z,94.15
2023-03-22T02:49:52.851Z,94.05
2023-03-22T02:50:52.830Z,93.54
2023-03-22T02:51:52.840Z,93.64
2023-03-22T02:52:52.803Z,93.64
2023-03-22T02:53:52.779Z,93.70
2023-03-22T02:54:52.762Z,93.64
2023-03-22T02:55:52.765Z,93.74
2023-03-22T02:56:52.760Z,93.64
2023-03-22T02:57:52.714Z,93.74
2023-03-22T02:58:52.694Z,93.64
2023-03-22T02:59:52.683Z,93.64
2023-03-22T03:00:52.701Z,93.74
2023-03-22T03:01:52.733Z,93.74
2023-03-22T03:02:52.627Z,93.95
2023-03-22T03:03:52.616Z,93.85
2023-03-22T03:04:52.596Z,93.54
2023-03-22T03:05:52.578Z,94.05
2023-03-22T03:06:52.576Z,93.95
2023-03-22T03:07:52.614Z,93.85
2023-03-22T03:08:52.562Z,93.95
2023-03-22T03:09:52.553Z,93.95
2023-03-22T03:10:52.512Z,93.74
2023-03-22T03:11:52.485Z,93.95
2023-03-22T03:12:52.464Z,93.95
2023-03-22T03:13:52.480Z,93.95
2023-03-22T03:14:52.434Z,94.15
2023-03-22T03:15:52.442Z,93.85
2023-03-22T03:16:52.395Z,94.15
2023-03-22T03:17:52.382Z,94.15
2023-03-22T03:18:52.370Z,93.85
2023-03-22T03:19:52.369Z,93.64
2023-03-22T03:20:52.338Z,93.64
2023-03-22T03:21:52.313Z,93.95
2023-03-22T03:22:52.300Z,94.10
2023-03-22T03:23:52.309Z,93.99
2023-03-22T03:24:52.265Z,93.99
2023-03-22T03:25:52.251Z,94.10
2023-03-22T03:26:52.232Z,93.99
2023-03-22T03:27:52.224Z,94.30
2023-03-22T03:28:52.263Z,94.40
2023-03-22T03:29:52.188Z,94.40
2023-03-22T03:30:52.164Z,94.40
2023-03-22T03:31:52.296Z,94.10
2023-03-22T03:32:52.139Z,94.40
2023-03-22T03:33:52.114Z,94.40
2023-03-22T03:34:52.104Z,94.30
2023-03-22T03:35:52.119Z,94.51
2023-03-22T03:36:52.072Z,94.51
2023-03-22T03:37:52.051Z,94.40
2023-03-22T03:38:52.041Z,94.40
2023-03-22T03:39:52.019Z,94.30
2023-03-22T03:40:52.003Z,94.30
2023-03-22T03:41:51.989Z,94.10
2023-03-22T03:42:52.018Z,94.26
2023-03-22T03:43:51.963Z,94.40
2023-03-22T03:44:51.964Z,94.40
2023-03-22T03:45:52.032Z,94.40
2023-03-22T03:46:51.900Z,94.40
2023-03-22T03:47:51.913Z,94.26
2023-03-22T03:49:10.339Z,94.30
2023-03-22T03:49:51.899Z,94.30
2023-03-22T03:50:51.842Z,94.36
2023-03-22T03:51:51.824Z,94.36
2023-03-22T03:52:51.806Z,94.26
2023-03-22T03:53:51.784Z,94.15
2023-03-22T03:54:51.770Z,94.05
2023-03-22T03:55:51.789Z,93.95
2023-03-22T03:56:51.736Z,94.05
2023-03-22T03:57:51.717Z,93.85
2023-03-22T03:58:51.711Z,93.95
2023-03-22T03:59:51.700Z,93.95
2023-03-22T04:00:51.847Z,93.74
2023-03-22T04:01:51.728Z,93.64
2023-03-22T04:02:51.637Z,93.74
2023-03-22T04:03:51.624Z,93.33
2023-03-22T04:04:51.624Z,93.33
2023-03-22T04:05:51.584Z,93.64
2023-03-22T04:06:51.622Z,93.54
2023-03-22T04:07:51.554Z,93.64
2023-03-22T04:08:51.541Z,93.64
2023-03-22T04:09:51.527Z,93.54
2023-03-22T04:10:51.504Z,93.64
2023-03-22T04:11:51.525Z,93.85
2023-03-22T04:12:51.483Z,93.74
2023-03-22T04:13:51.455Z,93.60
2023-03-22T04:14:51.441Z,93.74
2023-03-22T04:15:51.437Z,93.70
2023-03-22T04:16:51.446Z,93.13
2023-03-22T04:17:51.419Z,93.13
2023-03-22T04:18:51.372Z,93.23
2023-03-22T04:19:51.359Z,93.64
2023-03-22T04:20:51.354Z,93.54
2023-03-22T04:21:51.325Z,93.08
2023-03-22T04:22:51.309Z,93.23
2023-03-22T04:23:51.294Z,93.13
2023-03-22T04:24:51.326Z,93.33
2023-03-22T04:25:51.257Z,92.93
2023-03-22T04:26:51.252Z,93.54
2023-03-22T04:27:51.429Z,93.44
2023-03-22T04:28:51.210Z,93.08
2023-03-22T04:29:51.352Z,93.64
2023-03-22T04:30:51.324Z,93.23
2023-03-22T04:31:51.189Z,93.64
2023-03-22T04:32:51.143Z,93.64
2023-03-22T04:33:51.124Z,93.74
2023-03-22T04:34:51.111Z,93.64
2023-03-22T04:35:51.135Z,93.85
2023-03-22T04:36:51.089Z,93.70
2023-03-22T04:37:51.056Z,93.19
2023-03-22T04:38:51.041Z,92.98
2023-03-22T04:39:51.080Z,93.29
2023-03-22T04:40:51.009Z,93.08
2023-03-22T04:41:50.991Z,92.88
2023-03-22T04:42:50.976Z,93.60
2023-03-22T04:43:51.026Z,93.60
2023-03-22T04:44:50.944Z,93.60
2023-03-22T04:45:50.983Z,93.74
2023-03-22T04:46:50.926Z,93.70
2023-03-22T04:47:50.934Z,93.80
2023-03-22T04:48:50.880Z,93.74
2023-03-22T04:49:50.858Z,93.80
2023-03-22T04:50:50.877Z,93.60
2023-03-22T04:51:50.838Z,93.90
2023-03-22T04:52:50.841Z,93.80
2023-03-22T04:53:50.793Z,93.90
2023-03-22T04:54:50.777Z,93.90
2023-03-22T04:55:50.765Z,93.90
2023-03-22T04:56:50.769Z,93.90
2023-03-22T04:57:50.727Z,93.70
2023-03-22T04:58:50.711Z,93.70
2023-03-22T04:59:50.702Z,93.70
2023-03-22T05:00:50.680Z,93.60
2023-03-22T05:01:50.721Z,93.70
2023-03-22T05:02:50.740Z,93.70
2023-03-22T05:03:50.654Z,93.60
2023-03-22T05:04:50.612Z,93.80
2023-03-22T05:05:50.595Z,93.49
2023-03-22T05:06:50.653Z,93.90
2023-03-22T05:07:50.574Z,93.60
2023-03-22T05:08:50.560Z,93.60
2023-03-22T05:09:50.530Z,93.70
2023-03-22T05:10:50.517Z,93.80
2023-03-22T05:11:50.509Z,93.80
2023-03-22T05:12:50.510Z,93.80
2023-03-22T05:13:50.476Z,93.90
2023-03-22T05:14:50.502Z,93.80
2023-03-22T05:15:50.501Z,93.90
2023-03-22T05:16:50.416Z,93.60
2023-03-22T05:17:51.263Z,93.70
2023-03-22T05:18:50.383Z,93.29
2023-03-22T05:19:50.374Z,93.08
2023-03-22T05:20:50.358Z,93.70
2023-03-22T05:21:50.334Z,93.70
2023-03-22T05:22:50.370Z,93.29
2023-03-22T05:23:51.573Z,93.35
2023-03-22T05:24:50.284Z,93.60
2023-03-22T05:25:50.272Z,92.68
2023-03-22T05:26:50.253Z,93.45
2023-03-22T05:27:50.247Z,93.15
2023-03-22T05:28:50.223Z,93.15
2023-03-22T05:29:50.200Z,93.04
2023-03-22T05:30:50.192Z,93.29
2023-03-22T05:31:50.272Z,93.25
2023-03-22T05:32:50.157Z,93.08
2023-03-22T05:33:50.146Z,93.19
2023-03-22T05:34:50.123Z,93.25
2023-03-22T05:35:50.172Z,93.04
2023-03-22T05:36:50.092Z,93.45
2023-03-22T05:37:50.075Z,93.08
2023-03-22T05:38:50.090Z,93.29
2023-03-22T05:39:50.043Z,92.88
2023-03-22T05:40:50.028Z,93.35
2023-03-22T05:41:50.014Z,92.63
2023-03-22T05:42:50.060Z,93.19
2023-03-22T05:43:49.976Z,92.68
2023-03-22T05:44:49.963Z,93.08
2023-03-22T05:45:49.944Z,93.60
2023-03-22T05:46:49.947Z,93.60
2023-03-22T05:47:49.927Z,93.60
2023-03-22T05:48:49.926Z,93.70
2023-03-22T05:49:49.892Z,93.70
2023-03-22T05:50:49.875Z,93.49
2023-03-22T05:51:49.898Z,93.49
2023-03-22T05:52:49.850Z,93.19
2023-03-22T05:53:49.886Z,93.19
2023-03-22T05:54:49.801Z,93.49
2023-03-22T05:55:49.787Z,93.60
2023-03-22T05:56:49.781Z,92.88
2023-03-22T05:57:49.749Z,93.29
2023-03-22T05:58:49.770Z,93.49
2023-03-22T05:59:49.717Z,92.78
2023-03-22T06:00:49.706Z,93.60
2023-03-22T06:01:49.742Z,93.35
2023-03-22T06:02:49.738Z,93.55
2023-03-22T06:03:49.684Z,92.94
2023-03-22T06:04:49.654Z,93.29
2023-03-22T06:05:49.620Z,93.35
2023-03-22T06:06:49.642Z,93.04
2023-03-22T06:07:49.599Z,92.94
2023-03-22T06:08:49.597Z,92.53
2023-03-22T06:09:49.607Z,92.94
2023-03-22T06:10:49.543Z,92.83
2023-03-22T06:11:49.583Z,92.22
2023-03-22T06:12:49.576Z,92.53
2023-03-22T06:13:49.501Z,92.43
2023-03-22T06:14:49.481Z,92.53
2023-03-22T06:15:49.462Z,92.43
2023-03-22T06:16:49.570Z,93.04
2023-03-22T06:17:49.458Z,92.43
2023-03-22T06:18:49.438Z,92.63
2023-03-22T06:19:50.900Z,92.53
2023-03-22T06:20:49.398Z,92.22
2023-03-22T06:21:49.359Z,92.43
2023-03-22T06:22:49.415Z,92.22
2023-03-22T06:23:49.355Z,92.74
2023-03-22T06:24:49.314Z,92.53
2023-03-22T06:25:49.302Z,92.53
2023-03-22T06:26:49.287Z,92.43
2023-03-22T06:27:49.272Z,91.71
2023-03-22T06:28:49.271Z,92.02
2023-03-22T06:29:49.230Z,92.22
2023-03-22T06:30:49.285Z,92.22
2023-03-22T06:31:49.199Z,91.56
2023-03-22T06:32:49.210Z,92.02
2023-03-22T06:33:50.199Z,91.67
2023-03-22T06:34:49.147Z,91.77
2023-03-22T06:35:49.211Z,91.50
2023-03-22T06:36:49.111Z,91.67
2023-03-22T06:37:49.091Z,91.87
2023-03-22T06:38:49.097Z,91.87
2023-03-22T06:39:49.071Z,91.56
2023-03-22T06:40:49.077Z,91.67
2023-03-22T06:41:49.025Z,91.87
2023-03-22T06:42:49.009Z,91.87
2023-03-22T06:43:49.029Z,91.87
2023-03-22T06:44:49.010Z,91.42
2023-03-22T06:45:49.035Z,91.56
2023-03-22T06:46:48.947Z,91.22
2023-03-22T06:47:48.933Z,91.22
2023-03-22T06:48:48.940Z,91.16
2023-03-22T06:49:48.896Z,91.52
2023-03-22T06:50:48.882Z,91.01
2023-03-22T06:51:48.864Z,90.81
2023-03-22T06:52:48.847Z,90.91
2023-03-22T06:53:48.862Z,90.70
2023-03-22T06:54:48.815Z,91.01
2023-03-22T06:55:48.851Z,91.22
2023-03-22T06:56:48.842Z,91.22
2023-03-22T06:57:48.767Z,90.56
2023-03-22T06:58:48.748Z,90.66
2023-03-22T06:59:48.737Z,89.64
2023-03-22T07:00:48.717Z,89.03
2023-03-22T07:01:48.728Z,89.09
2023-03-22T07:02:50.347Z,88.92
2023-03-22T07:03:48.705Z,89.50
2023-03-22T07:04:48.698Z,88.92
2023-03-22T07:05:48.652Z,89.03
2023-03-22T07:06:48.624Z,88.71
2023-03-22T07:07:48.620Z,88.57
2023-03-22T07:08:50.738Z,88.37
2023-03-22T07:09:48.582Z,87.96
2023-03-22T07:10:48.576Z,87.49
2023-03-22T07:11:48.579Z,88.06
2023-03-22T07:12:48.535Z,88.78
2023-03-22T07:13:48.509Z,88.71
2023-03-22T07:14:48.496Z,88.98
2023-03-22T07:15:48.595Z,88.82
2023-03-22T07:16:48.542Z,88.92
2023-03-22T07:17:48.448Z,87.85
2023-03-22T07:18:48.425Z,87.55
2023-03-22T07:19:48.452Z,88.68
2023-03-22T07:20:48.399Z,87.38
2023-03-22T07:21:48.383Z,87.65
2023-03-22T07:22:48.388Z,87.96
2023-03-22T07:23:48.352Z,87.14
2023-03-22T07:24:56.985Z,87.96
2023-03-22T07:25:48.334Z,87.45
2023-03-22T07:26:48.305Z,87.79
2023-03-22T07:27:48.301Z,87.14
2023-03-22T07:28:48.270Z,87.45
2023-03-22T07:29:48.428Z,87.45
2023-03-22T07:30:48.503Z,88.37
2023-03-22T07:31:48.241Z,87.96
2023-03-22T07:32:48.203Z,87.85
2023-03-22T07:33:48.197Z,88.06
2023-03-22T07:34:48.173Z,87.85
2023-03-22T07:35:48.193Z,87.55
2023-03-22T07:36:48.139Z,87.35
2023-03-22T07:37:48.133Z,87.76
2023-03-22T07:38:48.170Z,87.96
2023-03-22T07:39:48.095Z,87.85
2023-03-22T07:40:48.078Z,87.96
2023-03-22T07:41:48.073Z,87.55
2023-03-22T07:42:48.056Z,88.37
2023-03-22T07:43:56.634Z,88.10
2023-03-22T07:44:48.185Z,87.59
2023-03-22T07:45:48.000Z,88.06
2023-03-22T07:46:48.070Z,87.59
2023-03-22T07:47:47.998Z,87.18
2023-03-22T07:48:47.965Z,87.90
2023-03-22T07:49:47.937Z,88.62
2023-03-22T07:50:47.950Z,88.71
2023-03-22T07:51:47.917Z,88.57
2023-03-22T07:52:47.893Z,88.82
2023-03-22T07:53:47.878Z,88.31
2023-03-22T07:54:47.866Z,88.57
2023-03-22T07:55:47.899Z,87.96
2023-03-22T07:56:47.826Z,87.96
2023-03-22T07:57:47.812Z,88.00
2023-03-22T07:58:47.905Z,88.62
2023-03-22T07:59:47.791Z,88.20
2023-03-22T08:00:47.991Z,88.62
2023-03-22T08:01:47.877Z,88.82
2023-03-22T08:02:47.795Z,88.71
2023-03-22T08:03:47.722Z,88.20
2023-03-22T08:04:51.079Z,88.92
2023-03-22T08:05:47.698Z,88.62
2023-03-22T08:06:47.666Z,88.10
2023-03-22T08:07:47.737Z,88.51
2023-03-22T08:08:47.656Z,87.96
2023-03-22T08:09:47.648Z,88.68
2023-03-22T08:10:47.609Z,88.57
2023-03-22T08:11:47.644Z,87.55
2023-03-22T08:12:47.578Z,87.51
2023-03-22T08:13:47.588Z,87.51
2023-03-22T08:14:47.542Z,87.30
2023-03-22T08:15:47.572Z,88.23
2023-03-22T08:16:47.615Z,87.37
2023-03-22T08:17:47.552Z,87.26
2023-03-22T08:18:47.481Z,86.85
2023-03-22T08:19:47.472Z,86.44
2023-03-22T08:20:47.463Z,86.55
2023-03-22T08:21:47.495Z,86.76
2023-03-22T08:22:47.419Z,86.71
2023-03-22T08:23:48.801Z,86.41
2023-03-22T08:24:47.383Z,86.51
2023-03-22T08:25:47.365Z,85.69
2023-03-22T08:26:47.350Z,86.51
2023-03-22T08:27:47.362Z,86.20
2023-03-22T08:28:47.348Z,87.02
2023-03-22T08:29:47.305Z,87.53
2023-03-22T08:30:47.288Z,87.23
2023-03-22T08:31:47.373Z,86.41
2023-03-22T08:32:47.258Z,86.91
2023-03-22T08:33:47.296Z,86.47
2023-03-22T08:34:47.260Z,85.38
2023-03-22T08:35:47.382Z,85.86
2023-03-22T08:36:47.215Z,86.26
2023-03-22T08:37:47.204Z,85.65
2023-03-22T08:38:47.179Z,85.75
2023-03-22T08:39:47.153Z,85.86
2023-03-22T08:40:47.152Z,86.33
2023-03-22T08:41:47.121Z,85.61
2023-03-22T08:42:47.136Z,85.30
2023-03-22T08:43:47.106Z,85.21
2023-03-22T08:44:47.114Z,84.90
2023-03-22T08:45:47.093Z,85.51
2023-03-22T08:46:47.048Z,86.18
2023-03-22T08:47:47.088Z,84.75
2023-03-22T08:48:47.084Z,84.96
2023-03-22T08:49:47.009Z,85.61
2023-03-22T08:50:46.988Z,86.02
2023-03-22T08:51:46.996Z,85.92
2023-03-22T08:52:46.963Z,85.10
2023-03-22T08:53:46.946Z,85.14
2023-03-22T08:54:47.052Z,86.43
2023-03-22T08:55:46.940Z,86.16
2023-03-22T08:56:46.915Z,85.65
2023-03-22T08:57:46.891Z,85.86
2023-03-22T08:58:47.825Z,86.43
2023-03-22T08:59:46.864Z,86.22
2023-03-22T09:00:49.293Z,86.47
2023-03-22T09:01:46.999Z,85.65
2023-03-22T09:02:46.805Z,85.65
2023-03-22T09:03:46.851Z,86.47
2023-03-22T09:04:46.919Z,85.75
2023-03-22T09:05:46.826Z,85.35
2023-03-22T09:06:46.765Z,84.63
2023-03-22T09:07:46.802Z,84.42
2023-03-22T09:08:46.718Z,84.42
2023-03-22T09:09:46.734Z,85.04
2023-03-22T09:10:46.776Z,85.96
2023-03-22T09:11:46.793Z,84.94
2023-03-22T09:12:46.667Z,85.65
2023-03-22T09:13:46.722Z,85.30
2023-03-22T09:14:46.634Z,84.08
2023-03-22T09:15:46.744Z,84.90
2023-03-22T09:16:46.599Z,84.49
2023-03-22T09:17:46.590Z,84.69
2023-03-22T09:18:46.567Z,85.10
2023-03-22T09:19:46.599Z,83.98
2023-03-22T09:20:46.547Z,83.71
2023-03-22T09:21:46.529Z,83.81
2023-03-22T09:22:46.503Z,84.63
2023-03-22T09:23:46.493Z,84.28
2023-03-22T09:24:46.629Z,84.08
2023-03-22T09:25:46.568Z,83.26
2023-03-22T09:26:46.463Z,83.16
2023-03-22T09:27:47.350Z,83.06
2023-03-22T09:28:46.477Z,82.96
2023-03-22T09:29:46.402Z,83.53
2023-03-22T09:30:46.425Z,82.92
2023-03-22T09:31:46.406Z,83.53
2023-03-22T09:32:46.365Z,83.43
2023-03-22T09:33:46.351Z,82.92
2023-03-22T09:34:46.326Z,83.67
2023-03-22T09:35:46.403Z,83.26
2023-03-22T09:36:46.329Z,82.82
2023-03-22T09:37:46.360Z,82.31
2023-03-22T09:38:46.298Z,83.12
2023-03-22T09:39:46.261Z,83.53
2023-03-22T09:40:46.238Z,83.02
2023-03-22T09:41:46.220Z,82.41
2023-03-22T09:42:46.238Z,82.51
2023-03-22T09:43:46.233Z,81.18
2023-03-22T09:44:46.180Z,81.09
2023-03-22T09:45:46.160Z,80.37
2023-03-22T09:46:46.196Z,81.39
2023-03-22T09:47:46.266Z,81.18
2023-03-22T09:48:48.256Z,81.59
2023-03-22T09:49:53.468Z,82.10
2023-03-22T09:50:46.104Z,81.59
2023-03-22T09:51:46.188Z,82.47
2023-03-22T09:52:46.063Z,81.56
2023-03-22T09:53:46.087Z,80.54
2023-03-22T09:54:46.036Z,80.43
2023-03-22T09:55:46.049Z,80.23
2023-03-22T09:56:46.003Z,81.04
2023-03-22T09:57:45.990Z,81.76
2023-03-22T09:58:46.018Z,80.64
2023-03-22T09:59:46.000Z,80.64
2023-03-22T10:00:46.120Z,79.93
2023-03-22T10:01:46.227Z,80.64
2023-03-22T10:02:45.986Z,79.82
2023-03-22T10:03:45.959Z,79.41
2023-03-22T10:04:45.883Z,79.00
2023-03-22T10:05:45.882Z,79.11
2023-03-22T10:06:45.987Z,78.91
2023-03-22T10:07:45.851Z,78.97
2023-03-22T10:08:45.826Z,79.27
2023-03-22T10:09:45.836Z,78.09
2023-03-22T10:10:45.793Z,79.38
2023-03-22T10:11:46.375Z,78.87
2023-03-22T10:12:45.845Z,78.97
2023-03-22T10:13:45.756Z,78.22
2023-03-22T10:14:45.742Z,77.03
2023-03-22T10:15:45.840Z,77.34
2023-03-22T10:16:45.711Z,77.85
2023-03-22T10:17:45.718Z,77.44
2023-03-22T10:18:45.695Z,77.44
2023-03-22T10:19:45.727Z,78.66
2023-03-22T10:20:45.741Z,79.68
2023-03-22T10:21:45.672Z,79.48
2023-03-22T10:22:45.618Z,78.26
2023-03-22T10:23:45.621Z,77.14
2023-03-22T10:24:45.590Z,76.83
2023-03-22T10:25:45.583Z,77.03
2023-03-22T10:26:45.560Z,76.93
2023-03-22T10:27:45.572Z,75.40
2023-03-22T10:28:45.527Z,76.90
2023-03-22T10:29:45.517Z,76.08
2023-03-22T10:30:45.506Z,77.00
2023-03-22T10:31:45.548Z,74.25
2023-03-22T10:32:57.215Z,74.96
2023-03-22T10:33:45.457Z,74.93
2023-03-22T10:34:45.444Z,75.43
2023-03-22T10:35:45.493Z,74.93
2023-03-22T10:36:45.415Z,75.09
2023-03-22T10:37:45.427Z,75.40
2023-03-22T10:38:45.397Z,74.79
2023-03-22T10:39:45.398Z,74.28
2023-03-22T10:40:45.354Z,75.13
2023-03-22T10:41:45.342Z,74.79
2023-03-22T10:42:45.358Z,74.32
2023-03-22T10:43:45.339Z,73.30
2023-03-22T10:44:45.304Z,74.35
2023-03-22T10:45:45.283Z,74.35
2023-03-22T10:46:45.448Z,75.06
2023-03-22T10:47:45.317Z,74.86
2023-03-22T10:50:24.139Z,74.25
2023-03-22T10:51:24.148Z,74.04
2023-03-22T10:52:24.108Z,74.15
2023-03-22T10:53:24.120Z,73.23
2023-03-22T10:54:26.034Z,74.25
2023-03-22T10:55:24.080Z,74.25
2023-03-22T10:56:24.045Z,74.76
2023-03-22T10:57:24.042Z,73.71
2023-03-22T10:58:24.074Z,74.41
2023-03-22T10:59:24.008Z,74.99
2023-03-22T11:00:24.067Z,72.55
2023-03-22T11:01:24.169Z,73.13
2023-03-22T11:02:24.157Z,72.11
2023-03-22T11:03:23.948Z,72.82
2023-03-22T11:04:24.004Z,73.39
2023-03-22T11:05:23.926Z,73.39
2023-03-22T11:06:23.917Z,71.97
2023-03-22T11:07:23.894Z,72.11
2023-03-22T11:08:23.879Z,71.53
2023-03-22T11:09:23.868Z,72.96
2023-03-22T11:10:23.939Z,74.11
2023-03-22T11:11:23.859Z,73.43
2023-03-22T11:12:23.830Z,73.43
2023-03-22T11:13:23.814Z,72.82
2023-03-22T11:14:23.798Z,74.18
2023-03-22T11:15:23.802Z,74.55
2023-03-22T11:16:23.859Z,73.26
2023-03-22T11:17:23.757Z,75.47
2023-03-22T11:18:23.776Z,74.62
2023-03-22T11:19:23.727Z,74.21
2023-03-22T11:20:23.784Z,72.31
2023-03-22T11:21:23.708Z,72.52
2023-03-22T11:22:23.681Z,73.94
2023-03-22T11:23:23.701Z,74.25
2023-03-22T11:24:23.656Z,73.74
2023-03-22T11:25:23.672Z,72.52
2023-03-22T11:27:23.638Z,73.23
2023-03-22T11:28:23.624Z,72.24
2023-03-22T11:29:23.590Z,72.52
2023-03-22T11:30:23.573Z,72.21
2023-03-22T11:31:23.574Z,73.77
2023-03-22T11:32:23.574Z,72.11
2023-03-22T11:33:23.554Z,72.52
2023-03-22T11:34:23.567Z,73.43
2023-03-22T11:35:23.575Z,73.43
2023-03-22T11:36:23.485Z,73.13
2023-03-22T11:37:23.500Z,73.33
2023-03-22T11:38:23.492Z,74.55
2023-03-22T11:39:23.443Z,74.21
2023-03-22T11:40:23.430Z,75.02
2023-03-22T11:41:23.470Z,72.65
2023-03-22T11:42:23.403Z,72.75
2023-03-22T11:43:23.434Z,72.34
2023-03-22T11:44:23.376Z,72.14
2023-03-22T11:45:23.363Z,72.04
2023-03-22T11:46:23.359Z,71.64
2023-03-22T11:47:23.327Z,73.36
2023-03-22T11:48:23.411Z,74.24
2023-03-22T11:49:23.311Z,72.62
2023-03-22T11:50:23.290Z,73.80
2023-03-22T11:51:23.271Z,70.65
2023-03-22T11:52:23.273Z,73.30
2023-03-22T11:53:23.273Z,71.67
2023-03-22T11:54:23.238Z,72.28
2023-03-22T11:55:23.229Z,72.38
2023-03-22T11:56:23.207Z,72.78
2023-03-22T11:57:23.189Z,71.50
2023-03-22T11:58:24.076Z,72.31
2023-03-22T11:59:23.209Z,72.11
2023-03-22T12:00:23.158Z,69.29
2023-03-22T12:01:23.133Z,71.84
2023-03-22T12:02:23.234Z,72.21
2023-03-22T12:03:23.246Z,73.36
2023-03-22T12:04:23.134Z,73.67
2023-03-22T12:05:23.242Z,72.01
2023-03-22T12:06:23.124Z,71.53
2023-03-22T12:07:23.065Z,72.75
2023-03-22T12:08:23.040Z,72.86
2023-03-22T12:09:23.055Z,73.16
2023-03-22T12:10:23.021Z,73.36
2023-03-22T12:11:23.009Z,72.86
2023-03-22T12:12:23.009Z,72.04
2023-03-22T12:13:22.979Z,72.86
2023-03-22T12:14:22.988Z,73.57
2023-03-22T12:15:22.961Z,71.84
2023-03-22T12:16:24.739Z,73.26
2023-03-22T12:17:22.916Z,73.30
2023-03-22T12:18:23.038Z,72.17
2023-03-22T12:19:22.893Z,71.73
2023-03-22T12:20:22.905Z,72.96
2023-03-22T12:21:22.861Z,72.17
2023-03-22T12:22:22.856Z,71.56
2023-03-22T12:23:22.846Z,71.77
2023-03-22T12:24:22.821Z,72.58
2023-03-22T12:25:22.842Z,72.34
2023-03-22T12:26:22.798Z,71.73
2023-03-22T12:27:22.778Z,71.67
2023-03-22T12:28:22.768Z,70.62
2023-03-22T12:29:22.753Z,70.82
2023-03-22T12:30:22.745Z,70.95
2023-03-22T12:31:22.838Z,72.38
2023-03-22T12:32:22.803Z,71.53
2023-03-22T12:33:22.700Z,70.95
2023-03-22T12:34:22.693Z,72.04
2023-03-22T12:35:22.700Z,71.77
2023-03-22T12:36:22.669Z,70.65
2023-03-22T12:37:22.641Z,71.36
2023-03-22T12:38:22.625Z,71.47
2023-03-22T12:39:22.624Z,71.67
2023-03-22T12:40:22.611Z,71.87
2023-03-22T12:41:22.619Z,71.67
2023-03-22T12:42:22.568Z,71.77
2023-03-22T12:43:22.560Z,73.30
2023-03-22T12:44:22.540Z,73.30
2023-03-22T12:45:22.540Z,74.45
2023-03-22T12:46:22.614Z,74.25
2023-03-22T12:47:22.545Z,72.31
2023-03-22T12:48:22.614Z,72.21
2023-03-22T12:49:22.489Z,72.52
2023-03-22T12:50:22.456Z,74.86
2023-03-22T12:51:22.480Z,73.97
2023-03-22T12:52:22.426Z,74.58
2023-03-22T12:53:22.464Z,74.58
2023-03-22T12:54:22.435Z,74.38
2023-03-22T12:55:22.389Z,75.95